Nearby METAR Reports

 

KGIF - Winter Haven, Florida, USA
Distance from station: SW 11mi, 18km
Updated: Sat, 20-Jul-2024 2:53pm EDT
Few Clouds
Few Clouds
 Wind from SSW
Wind: SSW 7 mph , 11 km/h
Temperature: 95°F , 35°C
Heat Index: 105°F , 41°C
Dew Point: 73°F , 23°C
Humidity: 50%
Barometer: 30.11 inHg , 1019.6 hPa
Clouds: Few Clouds
Visibility: 10 miles , 16 km
Cloud details: Few Clouds 7000 ft
2024/07/20 18:53 KGIF 201853Z AUTO 20006KT 10SM FEW070 35/23 A3011 RMK AO2 SLP192 T03500228
KISM - Kissimmee/Orland, Florida, USA
Distance from station: NE 13mi, 22km
Updated: Sat, 20-Jul-2024 2:56pm EDT
Clear
Clear
 Wind from SSE
Wind: SSE 9 mph , 15 km/h
Temperature: 93°F , 34°C
Heat Index: 105°F , 41°C
Dew Point: 75°F , 24°C
Humidity: 56%
Barometer: 30.11 inHg , 1019.6 hPa
Clouds: Clear
Visibility: 10 miles , 16 km
2024/07/20 18:56 KISM 201856Z 16008KT 10SM CLR 34/24 A3011 RMK AO2 SLP195 T03390239 $
 
KBOW - Bartow Municipal, Florida, USA
Distance from station: SSW 19mi, 31km
Updated: Sat, 20-Jul-2024 2:45pm EDT

 Wind from SSE
Wind: SSE 12 mph , 19 km/h, Gust: 13 mph , 20 km/h
2024/07/20 18:45 KBOW 201845Z 15010G11KT VRB 10SM SCT055 34/23 A3011 -RA RMK LTG DSNT SE AND S
KMCO - Orlando, Florida, USA
Distance from station: NE 24mi, 39km
Updated: Sat, 20-Jul-2024 2:53pm EDT
Partly cloudy
Partly cloudy
 Wind from S
Wind: S 7 mph , 11 km/h
Temperature: 93°F , 34°C
Heat Index: 103°F , 39°C
Dew Point: 73°F , 23°C
Humidity: 53%
Barometer: 30.10 inHg , 1019.3 hPa
Clouds: Partly cloudy
Visibility: 10 miles , 16 km
Cloud details: Partly cloudy 4500 ft
Partly cloudy 25000 ft
2024/07/20 18:53 KMCO 201853Z 17006KT 10SM SCT045 SCT250 34/23 A3010
 
KLAL - Lakeland Regiona, Florida, USA
Distance from station: WSW 28mi, 46km
Updated: Sat, 20-Jul-2024 2:47pm EDT
Partly cloudy
Partly cloudy
 Wind from S
Wind: S 7 mph , 11 km/h
Temperature: 93°F , 34°C
Heat Index: 105°F , 41°C
Dew Point: 75°F , 24°C
Humidity: 56%
Barometer: 30.11 inHg , 1019.6 hPa
Clouds: Partly cloudy
Visibility: 10 miles , 16 km
Cloud details: Partly cloudy 5000 ft
2024/07/20 18:47 KLAL 201847Z 18006KT 10SM SCT050 34/24 A3011
KORL - Orlando, Florida, USA
Distance from station: NNE 31mi, 50km
Updated: Sat, 20-Jul-2024 2:53pm EDT
Few Clouds
Few Clouds
 Wind from SE
Wind: SE 7 mph , 11 km/h
Temperature: 95°F , 35°C
Heat Index: 105°F , 41°C
Dew Point: 73°F , 23°C
Humidity: 50%
Barometer: 30.10 inHg , 1019.3 hPa
Clouds: Few Clouds
Visibility: 10 miles , 16 km
Cloud details: Few Clouds 4700 ft
2024/07/20 18:53 KORL 201853Z 13006KT 10SM FEW047 35/23 A3010 RMK AO2 SLP194 T03500228
 
KZPH - Zephyrhills, Florida, USA
Distance from station: W 33mi, 53km
Updated: Thu, 18-Jul-2024 7:35pm EDT
NOT Current
Heavy thunderstorm, Rain, Mist, Overcast
Heavy thunderstorm, Rain, Mist, Overcast
 Wind from E
Wind: E 14 mph , 22 km/h, Gust: 31 mph , 50 km/h
Temperature: 72°F , 22°C
Dew Point: 70°F , 21°C
Humidity: 94%
Barometer: 30.09 inHg , 1019 hPa
Summary: Heavy thunderstorm, Rain, Mist
Clouds: Overcast
Visibility: 1 mile , 2 km
Cloud details: Mostly cloudy 800 ft
Overcast 1300 ft
2024/07/18 23:35 KZPH 182335Z AUTO 10012G27KT 1SM +TSRA BR BKN008 OVC013 22/21 A3009 RMK A02 VIS 1/2V1 3/4 LTG DSNT ALQDS T02240212
KPCM - Plant City Muni, Florida, USA
Distance from station: WSW 36mi, 57km
Updated: Sat, 20-Jul-2024 3:15pm EDT
Partly cloudy
Partly cloudy
 Wind from ESE
Wind: ESE 8 mph , 13 km/h
Temperature: 95°F , 35°C
Heat Index: 110°F , 43°C
Dew Point: 77°F , 25°C
Humidity: 56%
Barometer: 30.11 inHg , 1019.6 hPa
Clouds: Partly cloudy
Visibility: 10 miles , 16 km
Cloud details: Mostly cloudy 4800 ft
Partly cloudy 5500 ft
2024/07/20 19:15 KPCM 201915Z AUTO 12007KT 10SM BKN048 SCT055 35/25 A3011 RMK AO2
 
KVDF - Tampa/Vandenburg, Florida, USA
Distance from station: WSW 45mi, 73km
Updated: Sat, 20-Jul-2024 3:35pm EDT
Mostly cloudy
Mostly cloudy
 Wind from S
Wind: S 3 mph , 6 km/h
Temperature: 91°F , 33°C
Heat Index: 104°F , 40°C
Dew Point: 77°F , 25°C
Humidity: 63%
Barometer: 30.09 inHg , 1019 hPa
Clouds: Mostly cloudy
Visibility: 10 miles , 16 km
Cloud details: Partly cloudy 6000 ft
Mostly cloudy 7000 ft
2024/07/20 19:35 KVDF 201935Z AUTO 17003KT 10SM SCT060 BKN070 33/25 A3009 RMK AO2
KLEE - Leesburg, Florida, USA
Distance from station: NNW 46mi, 74km
Updated: Sat, 20-Jul-2024 2:53pm EDT
Clear
Clear
 Wind from SE
Wind: SE 6 mph , 9 km/h
Temperature: 93°F , 34°C
Heat Index: 105°F , 41°C
Dew Point: 75°F , 24°C
Humidity: 56%
Barometer: 30.10 inHg , 1019.3 hPa
Clouds: Clear
Visibility: 10 miles , 16 km
2024/07/20 18:53 KLEE 201853Z 13005KT 10SM CLR 34/24 A3010 RMK AO2 SLP191 T03390244
 
KSFB - Sanford/Orlando, Florida, USA
Distance from station: NNE 47mi, 76km
Updated: Sat, 20-Jul-2024 2:53pm EDT
Few Clouds
Few Clouds
 Wind from SSE
Wind: SSE 9 mph , 15 km/h
Temperature: 95°F , 35°C
Heat Index: 107°F , 42°C
Dew Point: 75°F , 24°C
Humidity: 53%
Barometer: 30.09 inHg , 1019 hPa
Clouds: Few Clouds
Visibility: 10 miles , 16 km
Cloud details: Few Clouds 4800 ft
2024/07/20 18:53 KSFB 201853Z 15008KT 10SM FEW048 35/24 A3009 RMK AO2 LTG DSNT NE SLP187 T03500239